Time;durP1;ratioP1;P1;durP2;ratioP2;P2;SDS_P1;SDS_P2;PMS_P1;PMS_P2;Temp;Humidity;BMP_temperature;BMP_pressure;BME280_temperature;BME280_humidity;BME280_pressure;Samples;Min_cycle;Max_cycle;Signal;HPM_P1;HPM_P2
2022/04/13 00:01:27;;;;;;;4.70;3.83;;;10.40;99.90;;;11.10;72.65;97600.09;5224476;28;20233;-53
2022/04/13 00:04:00;;;;;;;4.60;4.20;;;10.40;99.90;;;11.15;72.02;97603.78;5221525;28;20344;-53
2022/04/13 00:06:38;;;;;;;4.40;4.00;;;10.40;99.90;;;11.19;72.68;97605.69;5225694;28;20248;-55
2022/04/13 00:09:11;;;;;;;4.57;4.17;;;10.50;99.90;;;11.12;72.63;97598.50;5222748;28;20229;-49
2022/04/13 00:11:44;;;;;;;4.00;3.67;;;10.40;99.90;;;11.12;72.38;97598.50;5225427;28;20221;-53
2022/04/13 00:14:17;;;;;;;3.80;3.60;;;10.40;99.90;;;11.12;72.45;97606.19;5219001;28;20396;-51
2022/04/13 00:16:51;;;;;;;4.03;3.63;;;10.40;99.90;;;11.14;72.71;97603.72;5225165;28;20296;-53
2022/04/13 00:19:26;;;;;;;4.23;3.93;;;10.40;99.90;;;11.13;71.62;97607.03;5222693;28;20197;-49
2022/04/13 00:22:00;;;;;;;4.00;3.70;;;10.40;99.90;;;11.11;72.14;97603.56;5222158;28;20200;-51
2022/04/13 00:24:33;;;;;;;3.90;3.60;;;10.30;99.90;;;11.13;72.16;97599.38;5225848;28;20228;-52
2022/04/13 00:27:07;;;;;;;4.60;3.80;;;10.40;99.90;;;11.17;71.42;97597.06;5224383;28;20225;-53
2022/04/13 00:29:40;;;;;;;4.00;3.73;;;10.40;99.90;;;11.17;71.33;97607.28;5225804;28;20285;-52
2022/04/13 00:32:13;;;;;;;3.83;3.53;;;10.40;99.90;;;11.19;71.93;97609.94;5219146;28;20202;-49
2022/04/13 00:34:46;;;;;;;4.67;4.17;;;10.40;99.90;;;11.20;71.30;97606.56;5224186;28;20213;-51
2022/04/13 00:37:20;;;;;;;5.13;4.70;;;10.40;99.90;;;11.19;71.49;97604.81;5222891;28;20217;-49
2022/04/13 00:39:53;;;;;;;5.30;4.80;;;10.40;99.90;;;11.17;72.09;97602.19;5224489;28;20641;-50
2022/04/13 00:42:28;;;;;;;4.60;4.30;;;10.40;99.90;;;11.17;71.98;97602.19;5223828;28;20236;-50
2022/04/13 00:45:01;;;;;;;4.13;3.83;;;10.40;99.90;;;11.23;72.92;97599.94;5219500;28;20228;-48
2022/04/13 00:47:40;;;;;;;4.57;4.17;;;10.50;99.90;;;11.18;71.48;97598.81;5219744;28;20291;-50
2022/04/13 00:50:14;;;;;;;4.05;3.67;;;10.40;99.90;;;11.18;72.06;97598.81;5223114;28;20287;-49
2022/04/13 00:52:50;;;;;;;4.93;4.43;;;10.40;99.90;;;11.10;71.54;97591.56;5224150;28;20241;-52
2022/04/13 00:55:25;;;;;;;4.15;3.67;;;10.40;99.90;;;11.13;71.33;97597.72;5223974;28;20255;-53
2022/04/13 00:57:59;;;;;;;4.32;3.92;;;10.40;99.90;;;11.18;70.86;97598.81;5220029;28;20219;-51
2022/04/13 01:00:38;;;;;;;4.23;3.83;;;10.40;99.90;;;11.21;72.12;97604.06;5225278;28;20188;-50
2022/04/13 01:03:12;;;;;;;4.37;4.07;;;10.40;99.90;;;11.27;71.32;97600.94;5222803;28;20645;-49
2022/04/13 01:05:46;;;;;;;4.80;4.40;;;10.50;99.90;;;11.31;71.61;97600.31;5222280;28;20233;-50
2022/04/13 01:08:22;;;;;;;5.00;4.60;;;10.50;99.90;;;11.30;70.61;97613.88;5225664;28;20283;-49
2022/04/13 01:10:56;;;;;;;4.20;3.90;;;10.50;99.90;;;11.31;71.60;97604.56;5219924;28;20288;-49
2022/04/13 01:13:29;;;;;;;4.53;4.13;;;10.50;99.90;;;11.32;71.64;97607.19;5221076;28;20285;-50
2022/04/13 01:16:02;;;;;;;4.20;3.80;;;10.50;99.90;;;11.31;72.66;97605.44;5220142;28;20220;-51
2022/04/13 01:18:36;;;;;;;3.80;3.50;;;10.50;99.90;;;11.35;72.71;97614.13;5222109;28;20296;-49
2022/04/13 01:21:12;;;;;;;4.33;3.90;;;10.50;99.90;;;11.32;74.09;97609.75;5221662;28;20270;-54
2022/04/13 01:23:50;;;;;;;4.00;3.55;;;10.50;99.90;;;11.30;74.28;97613.03;5221182;28;20298;-49
2022/04/13 01:26:23;;;;;;;3.78;3.50;;;10.40;99.90;;;11.32;75.03;97613.97;5223916;28;20217;-49
2022/04/13 01:28:56;;;;;;;3.78;3.53;;;10.40;99.90;;;11.30;74.95;97618.13;5224393;28;20221;-49
2022/04/13 01:31:29;;;;;;;4.23;3.30;;;10.40;99.90;;;11.25;75.34;97620.47;5221732;28;20205;-49
2022/04/13 01:34:04;;;;;;;4.00;3.70;;;10.30;99.90;;;11.19;76.69;97620.19;5223634;28;20615;-50
2022/04/13 01:36:38;;;;;;;4.13;3.70;;;10.30;99.90;;;11.17;76.17;97614.97;5222157;28;20393;-49
2022/04/13 01:39:13;;;;;;;4.03;3.70;;;10.20;99.90;;;11.12;76.09;97621.53;5221683;28;20244;-49
2022/04/13 01:41:46;;;;;;;4.20;3.80;;;10.10;99.90;;;11.12;76.01;97624.09;5220637;28;20712;-51
2022/04/13 01:44:19;;;;;;;4.27;3.87;;;10.10;99.90;;;11.06;76.82;97618.66;5218971;28;20304;-50
2022/04/13 01:46:52;;;;;;;3.90;3.60;;;10.10;99.90;;;11.01;76.79;97626.09;5224439;28;20296;-51
2022/04/13 01:49:25;;;;;;;4.10;3.70;;;10.10;99.90;;;10.97;77.49;97626.75;5221164;28;20297;-51
2022/04/13 01:51:58;;;;;;;3.60;3.40;;;10.00;99.90;;;10.96;77.70;97626.66;5218459;28;20236;-54
2022/04/13 01:54:33;;;;;;;3.83;3.53;;;10.10;99.90;;;10.97;78.22;97624.19;5222781;28;20289;-53
2022/04/13 01:57:06;;;;;;;3.80;3.50;;;10.10;99.90;;;10.93;78.86;97626.50;5223164;28;20254;-50
2022/04/13 01:59:39;;;;;;;4.32;3.90;;;10.10;99.90;;;10.91;78.66;97628.09;5216795;28;20201;-49
2022/04/13 02:02:12;;;;;;;4.10;3.80;;;10.00;99.90;;;10.82;80.21;97636.19;5217266;28;20283;-54
2022/04/13 02:04:45;;;;;;;4.90;3.67;;;10.00;99.90;;;10.77;79.45;97635.94;5218510;28;20221;-49
2022/04/13 02:07:18;;;;;;;3.40;3.10;;;9.90;99.90;;;10.77;80.11;97630.81;5222947;28;20295;-52
2022/04/13 02:09:53;;;;;;;3.73;3.43;;;9.80;99.90;;;10.73;80.13;97634.03;5223709;28;20232;-49
2022/04/13 02:12:26;;;;;;;3.70;3.40;;;9.80;99.90;;;10.68;81.20;97629.47;5223158;28;20228;-52
2022/04/13 02:15:00;;;;;;;4.03;3.73;;;9.80;99.90;;;10.70;80.37;97636.41;5221385;28;20652;-49
2022/04/13 02:17:33;;;;;;;5.17;3.70;;;9.90;99.90;;;10.69;80.11;97626.97;5223096;28;20193;-51
2022/04/13 02:20:08;;;;;;;3.67;3.30;;;9.80;99.90;;;10.63;80.70;97636.88;5220582;28;20634;-50
2022/04/13 02:22:44;;;;;;;4.10;3.70;;;9.80;99.90;;;10.60;81.07;97637.59;5219664;28;20196;-53
2022/04/13 02:25:20;;;;;;;4.00;3.70;;;9.70;99.90;;;10.55;80.40;97633.03;5222724;28;20620;-54
2022/04/13 02:27:53;;;;;;;3.67;3.47;;;9.70;99.90;;;10.51;80.21;97636.22;5223758;28;20240;-52
2022/04/13 02:30:26;;;;;;;3.93;3.70;;;9.60;99.90;;;10.52;80.19;97643.09;5221139;28;20300;-52
2022/04/13 02:33:01;;;;;;;4.07;3.67;;;9.60;99.90;;;10.48;80.09;97646.28;5221955;28;20388;-53
2022/04/13 02:35:35;;;;;;;4.23;3.83;;;9.50;99.90;;;10.48;80.50;97641.19;5221415;28;20720;-55
2022/04/13 02:38:09;;;;;;;3.50;3.20;;;9.60;99.90;;;10.47;80.62;97642.88;5218131;28;20231;-53
2022/04/13 02:40:44;;;;;;;3.90;3.60;;;9.60;99.90;;;10.52;80.61;97643.97;5223135;28;20232;-52
2022/04/13 02:43:17;;;;;;;3.90;3.60;;;9.60;99.90;;;10.46;81.22;97643.63;5221337;28;20262;-49
2022/04/13 02:45:51;;;;;;;4.07;3.70;;;9.60;99.90;;;10.46;80.98;97642.78;5220767;28;20677;-55
2022/04/13 02:48:24;;;;;;;4.07;3.77;;;9.60;99.90;;;10.37;81.08;97643.16;5223977;28;20208;-50
2022/04/13 02:50:57;;;;;;;4.13;3.83;;;9.60;99.90;;;10.42;81.23;97643.41;5221952;28;20197;-49
2022/04/13 02:53:31;;;;;;;4.20;4.00;;;9.60;99.90;;;10.50;80.27;97644.69;5220872;28;20232;-48
2022/04/13 02:56:06;;;;;;;4.60;3.90;;;9.60;99.90;;;10.46;78.74;97642.78;5223653;28;20255;-49
2022/04/13 02:58:39;;;;;;;4.70;4.30;;;9.60;99.90;;;10.47;78.14;97641.97;5224023;28;20284;-54
2022/04/13 03:01:12;;;;;;;4.60;4.20;;;9.60;99.90;;;10.42;78.35;97636.63;5223138;28;20221;-51
2022/04/13 03:03:45;;;;;;;4.50;4.20;;;9.60;99.90;;;10.45;78.18;97638.47;5222783;28;20193;-52
2022/04/13 03:06:19;;;;;;;4.53;4.17;;;9.60;99.90;;;10.48;78.31;97636.94;5223340;28;20748;-50
2022/04/13 03:08:52;;;;;;;3.93;3.73;;;9.70;99.90;;;10.50;79.36;97639.56;5223503;28;20287;-53
2022/04/13 03:11:26;;;;;;;3.80;3.50;;;9.70;99.90;;;10.52;78.84;97643.97;5222355;28;20284;-59
2022/04/13 03:13:59;;;;;;;3.97;3.67;;;9.60;99.90;;;10.50;77.95;97652.34;5223119;28;20228;-50
2022/04/13 03:16:33;;;;;;;4.17;3.83;;;9.50;99.90;;;10.43;78.39;97646.03;5223847;28;20225;-50
2022/04/13 03:19:06;;;;;;;3.93;3.53;;;9.40;99.90;;;10.38;78.58;97653.44;5222995;28;20679;-49
2022/04/13 03:21:39;;;;;;;3.87;3.57;;;9.30;99.90;;;10.30;79.81;97651.25;5220509;28;20288;-50
2022/04/13 03:24:12;;;;;;;3.67;3.47;;;9.30;99.90;;;10.18;80.72;97661.66;5222858;28;20206;-50
2022/04/13 03:26:47;;;;;;;4.30;4.00;;;9.20;99.90;;;10.17;79.71;97661.59;5223365;28;20224;-49
2022/04/13 03:29:20;;;;;;;4.30;3.93;;;9.10;99.90;;;10.09;80.74;97669.69;5223510;28;20225;-49
2022/04/13 03:31:53;;;;;;;4.43;4.03;;;9.10;99.90;;;10.00;80.75;97656.41;5222498;28;20239;-52
2022/04/13 03:34:28;;;;;;;4.00;3.70;;;9.00;99.90;;;9.90;81.41;97657.59;5224584;28;20649;-49
2022/04/13 03:37:01;;;;;;;4.33;3.93;;;9.00;99.90;;;9.87;82.25;97659.97;5227501;28;20235;-49
2022/04/13 03:39:34;;;;;;;4.40;4.00;;;8.90;99.90;;;9.88;81.90;97656.63;5222409;28;20224;-51
2022/04/13 03:42:09;;;;;;;4.17;3.87;;;8.90;99.90;;;9.84;81.75;97657.25;5221404;28;20197;-52
2022/04/13 03:44:42;;;;;;;3.83;3.63;;;8.90;99.90;;;9.84;81.13;97659.81;5224886;28;20769;-49
2022/04/13 03:47:15;;;;;;;4.60;4.30;;;8.90;99.90;;;9.79;81.09;97666.31;5220336;28;20229;-51
2022/04/13 03:49:48;;;;;;;3.70;3.50;;;8.90;99.90;;;9.74;81.45;97667.72;5226168;28;20225;-48
2022/04/13 03:52:22;;;;;;;4.70;4.30;;;8.80;99.90;;;9.70;81.92;97668.34;5224027;28;20228;-51
2022/04/13 03:54:55;;;;;;;4.70;4.30;;;8.80;99.90;;;9.63;81.76;97663.66;5224329;28;20701;-52
2022/04/13 03:57:29;;;;;;;4.33;4.03;;;8.70;99.90;;;9.53;80.96;97667.38;5225459;28;20709;-54
2022/04/13 04:00:04;;;;;;;4.40;4.10;;;8.60;99.90;;;9.39;81.27;97665.69;5226650;28;20662;-48
2022/04/13 04:02:38;;;;;;;3.83;3.60;;;8.50;99.90;;;9.39;81.03;97679.31;5225635;28;20262;-52
2022/04/13 04:05:12;;;;;;;3.97;3.47;;;8.50;99.90;;;9.37;81.02;97668.13;5225823;28;20247;-52
2022/04/13 04:07:45;;;;;;;4.40;4.10;;;8.50;99.90;;;9.28;81.88;97669.28;5225557;28;20240;-48
2022/04/13 04:10:19;;;;;;;4.80;4.40;;;8.40;99.90;;;9.25;82.05;97669.97;5225713;28;20308;-50
2022/04/13 04:12:55;;;;;;;4.53;4.13;;;8.40;99.90;;;9.11;81.91;97671.72;5225802;28;20224;-54
2022/04/13 04:15:29;;;;;;;4.33;3.90;;;8.30;99.90;;;9.16;82.78;97670.31;5225059;28;20227;-52
2022/04/13 04:18:02;;;;;;;4.20;3.90;;;8.30;99.90;;;9.18;82.54;97672.94;5227049;28;20629;-49
2022/04/13 04:20:35;;;;;;;4.10;3.80;;;8.40;99.90;;;9.20;82.72;97672.25;5225215;28;20198;-49
2022/04/13 04:23:09;;;;;;;4.43;4.13;;;8.40;99.90;;;9.23;83.54;97682.63;5223011;28;20227;-55
2022/04/13 04:25:42;;;;;;;4.10;3.67;;;8.40;99.90;;;9.24;83.14;97675.84;5224054;28;22034;-51
2022/04/13 04:28:16;;;;;;;4.70;4.30;;;8.40;99.90;;;9.15;82.20;97678.72;5226192;28;20616;-53
2022/04/13 04:30:49;;;;;;;3.93;3.73;;;8.30;99.90;;;9.15;82.03;97681.28;5225000;28;20216;-51
2022/04/13 04:33:24;;;;;;;3.90;3.60;;;8.30;99.90;;;9.22;82.52;97682.56;5223784;28;20583;-54
2022/04/13 04:35:57;;;;;;;4.47;4.07;;;8.30;99.90;;;9.19;82.61;97695.13;5224998;28;20303;-50
2022/04/13 04:38:32;;;;;;;5.07;4.57;;;8.30;99.90;;;9.10;82.19;97694.53;5225485;28;20244;-50
2022/04/13 04:41:07;;;;;;;4.47;4.07;;;8.20;99.90;;;9.12;82.55;97687.88;5224770;28;20228;-51
2022/04/13 04:43:41;;;;;;;4.20;4.00;;;8.20;99.90;;;9.08;82.81;97691.06;5223043;28;20208;-52
2022/04/13 04:46:14;;;;;;;4.10;3.80;;;8.30;99.90;;;8.97;82.66;97701.47;5226141;28;20327;-52
2022/04/13 04:48:48;;;;;;;4.10;3.80;;;8.20;99.90;;;9.01;82.72;97695.78;5221285;28;20204;-50
2022/04/13 04:51:21;;;;;;;4.57;4.27;;;8.20;99.90;;;9.07;81.92;97695.28;5225920;28;20279;-50
2022/04/13 04:53:54;;;;;;;4.77;4.30;;;8.20;99.90;;;9.08;84.36;97701.25;5223474;28;20292;-53
2022/04/13 04:56:28;;;;;;;4.33;3.93;;;8.30;99.90;;;9.03;83.10;97708.59;5224212;28;20233;-55
2022/04/13 04:59:03;;;;;;;4.43;4.03;;;8.30;99.90;;;9.08;82.02;97711.44;5224529;28;20295;-54
2022/04/13 05:01:36;;;;;;;4.73;4.30;;;8.30;99.90;;;9.12;81.93;97708.28;5220988;28;20204;-54
2022/04/13 05:04:10;;;;;;;5.50;4.90;;;8.30;99.90;;;9.14;81.82;97711.81;5223759;28;20618;-53
2022/04/13 05:06:43;;;;;;;4.73;4.43;;;8.40;99.90;;;9.27;81.45;97714.31;5217459;28;20259;-54
2022/04/13 05:09:17;;;;;;;5.53;5.07;;;8.50;99.90;;;9.41;81.17;97716.00;5224551;28;20202;-54
2022/04/13 05:11:50;;;;;;;4.60;4.30;;;8.60;99.90;;;9.53;81.78;97714.94;5223887;28;20664;-54
2022/04/13 05:14:25;;;;;;;6.10;4.70;;;8.80;99.90;;;9.60;81.38;97711.97;5225768;28;20669;-54
2022/04/13 05:16:58;;;;;;;5.10;4.60;;;8.90;99.90;;;9.73;81.70;97714.47;5225848;28;20197;-54
2022/04/13 05:19:37;;;;;;;5.23;4.83;;;9.00;99.90;;;9.74;79.00;97713.66;5224858;28;20200;-54
2022/04/13 05:22:10;;;;;;;5.80;5.27;;;9.00;99.90;;;9.86;78.90;97714.34;5224003;28;20292;-52
2022/04/13 05:24:44;;;;;;;4.40;4.10;;;9.10;99.90;;;10.00;78.58;97709.16;5220024;28;20304;-53
2022/04/13 05:27:17;;;;;;;5.10;4.60;;;9.20;99.90;;;10.04;78.52;97711.94;5221895;28;20229;-56
2022/04/13 05:29:51;;;;;;;5.10;4.77;;;9.30;99.90;;;10.18;77.18;97728.06;5225114;28;20240;-53
2022/04/13 05:32:24;;;;;;;4.60;4.30;;;9.30;99.90;;;10.28;77.39;97717.63;5223045;28;20196;-54
2022/04/13 05:35:01;;;;;;;4.93;4.40;;;9.40;99.90;;;10.35;75.91;97721.38;5224447;28;20307;-54
2022/04/13 05:37:34;;;;;;;4.80;4.37;;;9.50;99.90;;;10.57;75.48;97723.44;5224429;28;20608;-54
2022/04/13 05:40:08;;;;;;;4.67;4.37;;;9.70;99.90;;;10.73;75.84;97718.38;5223337;28;20197;-54
2022/04/13 05:42:42;;;;;;;4.93;4.53;;;9.80;99.90;;;10.91;75.31;97725.28;5221875;28;20279;-53
2022/04/13 05:45:17;;;;;;;4.97;4.57;;;10.00;99.90;;;11.16;74.33;97719.75;5221237;28;20245;-54
2022/04/13 05:47:50;;;;;;;5.33;4.87;;;10.20;99.90;;;11.39;72.77;97715.81;5225027;28;20933;-55
2022/04/13 05:50:23;;;;;;;6.47;4.70;;;10.40;99.90;;;11.65;72.85;97714.63;5223038;28;20534;-56
2022/04/13 05:52:56;;;;;;;5.40;4.80;;;10.70;99.90;;;11.96;71.20;97722.19;5221700;28;20290;-58
2022/04/13 05:55:30;;;;;;;7.20;4.43;;;10.90;99.90;;;12.28;70.31;97718.63;5224243;28;20278;-57
2022/04/13 05:58:03;;;;;;;7.78;4.72;;;11.20;99.90;;;12.47;68.70;97728.03;5221435;28;20339;-53
2022/04/13 06:00:39;;;;;;;8.30;5.47;;;11.30;99.90;;;12.75;68.67;97727.66;5222803;28;20350;-52
2022/04/13 06:03:12;;;;;;;9.82;6.85;;;11.50;99.90;;;12.97;66.14;97726.97;5218893;28;20236;-52
2022/04/13 06:06:05;;;;;;;9.85;6.18;;;11.70;99.90;;;13.22;66.79;97723.81;5223256;28;20239;-54
2022/04/13 06:08:39;;;;;;;6.22;5.45;;;11.90;99.90;;;13.63;65.61;97721.31;5219206;28;20205;-53
2022/04/13 06:11:12;;;;;;;5.60;5.10;;;12.10;99.90;;;13.70;63.34;97725.91;5223977;28;20224;-54
2022/04/13 06:13:45;;;;;;;5.22;4.82;;;12.20;99.90;;;13.85;63.09;97721.44;5222003;28;20224;-53
2022/04/13 06:16:19;;;;;;;5.43;4.93;;;12.30;99.90;;;14.16;63.12;97720.09;5221553;28;20692;-56
2022/04/13 06:18:52;;;;;;;5.30;4.80;;;12.50;99.90;;;14.35;61.70;97722.59;5223519;28;20240;-54
2022/04/13 06:21:25;;;;;;;5.10;4.70;;;12.70;99.90;;;14.19;61.29;97725.34;5224541;28;20705;-55
2022/04/13 06:23:59;;;;;;;5.22;4.82;;;12.70;99.90;;;14.47;61.15;97721.34;5220624;28;20300;-54
2022/04/13 06:26:32;;;;;;;5.40;5.00;;;12.90;99.90;;;14.57;59.34;97734.66;5223281;28;20225;-58
2022/04/13 06:29:05;;;;;;;5.93;5.35;;;13.00;99.90;;;14.59;59.39;97726.97;5223367;28;20641;-55
2022/04/13 06:31:40;;;;;;;4.85;4.35;;;13.10;99.90;;;14.60;57.86;97733.91;5223645;28;20460;-52
2022/04/13 06:34:13;;;;;;;5.43;4.50;;;13.10;99.90;;;14.84;57.95;97734.84;5224115;28;20259;-54
2022/04/13 06:36:46;;;;;;;4.95;4.50;;;13.30;99.90;;;15.33;56.70;97735.78;5221274;28;20660;-56
2022/04/13 06:39:19;;;;;;;5.40;4.30;;;13.70;99.90;;;15.55;55.07;97727.13;5221124;28;20312;-54
2022/04/13 06:41:52;;;;;;;6.50;4.53;;;14.00;99.80;;;15.50;55.75;97733.81;5222259;28;20655;-53
2022/04/13 06:44:25;;;;;;;4.75;4.35;;;14.20;99.90;;;15.87;54.90;97737.72;5225422;28;20711;-56
2022/04/13 06:47:01;;;;;;;6.03;4.40;;;14.20;99.90;;;15.92;55.08;97737.03;5224107;28;20297;-56
2022/04/13 06:49:34;;;;;;;5.03;4.57;;;14.50;99.50;;;15.97;54.44;97742.38;5223587;28;20640;-54
2022/04/13 06:52:07;;;;;;;4.95;4.55;;;14.60;98.90;;;16.41;52.28;97751.56;5223650;28;20197;-54
2022/04/13 06:54:41;;;;;;;5.07;4.68;;;14.90;98.40;;;16.42;51.85;97748.19;5222448;28;20304;-54
2022/04/13 06:57:14;;;;;;;5.10;4.65;;;15.00;97.40;;;16.47;51.79;97761.22;5223941;28;20292;-54
2022/04/13 06:59:47;;;;;;;5.75;5.25;;;15.20;97.00;;;16.94;48.73;97754.13;5222361;28;20664;-57
2022/04/13 07:02:25;;;;;;;5.93;4.97;;;15.30;95.80;;;17.11;49.61;97757.19;5221359;28;20709;-54
2022/04/13 07:04:58;;;;;;;5.70;5.30;;;15.60;96.20;;;17.46;49.14;97760.81;5223008;28;20224;-55
2022/04/13 07:07:32;;;;;;;5.32;4.82;;;15.90;96.00;;;17.75;47.72;97747.81;5222995;28;20220;-54
2022/04/13 07:10:06;;;;;;;5.53;5.00;;;15.90;95.20;;;17.52;49.03;97755.81;5224565;28;20237;-54
2022/04/13 07:12:45;;;;;;;6.40;5.43;;;16.00;95.60;;;17.96;48.10;97757.88;5226359;28;20580;-54
2022/04/13 07:15:19;;;;;;;6.10;5.13;;;16.30;95.40;;;18.37;46.68;97760.63;5226801;28;20315;-54
2022/04/13 07:17:53;;;;;;;5.28;4.80;;;16.60;94.40;;;19.01;45.27;97756.13;5228046;28;20382;-57
2022/04/13 07:20:27;;;;;;;5.70;5.22;;;17.00;93.80;;;19.38;44.81;97754.34;5226614;28;20236;-57
2022/04/13 07:23:00;;;;;;;5.10;4.70;;;17.20;93.70;;;19.48;44.25;97748.47;5225647;28;20232;-53
2022/04/13 07:25:34;;;;;;;5.28;4.78;;;17.40;93.30;;;19.57;43.08;97753.84;5227756;28;20664;-56
2022/04/13 07:28:07;;;;;;;4.95;4.55;;;17.60;92.20;;;19.68;41.77;97752.38;5229298;28;20634;-57
2022/04/13 07:30:40;;;;;;;5.35;4.85;;;17.70;91.10;;;19.81;42.25;97753.50;5229499;28;20263;-55
2022/04/13 07:33:15;;;;;;;5.22;4.72;;;17.80;91.50;;;19.92;42.84;97761.47;5225571;28;20198;-55
2022/04/13 07:35:48;;;;;;;5.10;4.60;;;18.10;91.80;;;20.01;42.43;97761.66;5226475;28;20244;-54
2022/04/13 07:38:21;;;;;;;5.30;4.43;;;18.40;90.80;;;19.90;42.60;97768.34;5225191;28;20225;-53
2022/04/13 07:40:54;;;;;;;5.03;4.50;;;18.50;90.60;;;20.05;41.85;97766.03;5226760;28;20724;-54
2022/04/13 07:43:27;;;;;;;5.22;4.70;;;18.70;89.80;;;20.20;41.83;97766.31;5225793;28;20247;-55
2022/04/13 07:46:00;;;;;;;6.75;4.53;;;18.80;90.00;;;20.27;41.77;97766.44;5224958;28;20329;-55
2022/04/13 07:48:35;;;;;;;6.15;4.82;;;19.00;89.90;;;20.47;41.16;97763.31;5225409;28;20225;-51
2022/04/13 07:51:08;;;;;;;5.35;4.85;;;19.20;88.20;;;20.59;40.84;97770.44;5224844;28;20646;-53
2022/04/13 07:53:41;;;;;;;5.72;5.15;;;19.50;87.40;;;20.58;38.67;97773.91;5223562;28;20709;-51
2022/04/13 07:56:14;;;;;;;5.32;4.43;;;19.40;83.00;;;20.43;39.61;97773.59;5225924;28;20316;-54
2022/04/13 07:58:47;;;;;;;5.20;4.70;;;19.10;85.20;;;20.50;40.45;97775.47;5225723;28;20242;-52
2022/04/13 08:01:20;;;;;;;5.32;4.82;;;19.30;86.40;;;20.76;39.18;97775.91;5227455;28;20233;-54
2022/04/13 08:03:55;;;;;;;7.03;5.05;;;19.50;84.30;;;20.74;39.58;97777.59;5224062;28;20202;-52
2022/04/13 08:06:48;;;;;;;5.47;4.30;;;19.70;84.70;;;20.89;38.99;97774.41;5222713;28;20213;-52
2022/04/13 08:09:21;;;;;;;6.53;5.00;;;20.00;83.00;;;21.00;39.39;97777.13;5220376;28;20597;-52
2022/04/13 08:11:54;;;;;;;5.60;4.60;;;19.90;83.70;;;21.13;38.59;97772.13;5226127;28;20642;-51
2022/04/13 08:14:27;;;;;;;6.68;4.60;;;20.10;82.90;;;20.76;39.97;97775.03;5225306;28;20642;-51
2022/04/13 08:17:03;;;;;;;5.28;4.78;;;20.20;83.40;;;20.97;38.34;97767.56;5225175;28;20288;-51
2022/04/13 08:19:38;;;;;;;5.90;4.43;;;20.00;81.70;;;21.30;38.04;97766.28;5220483;28;20538;-53
2022/04/13 08:22:13;;;;;;;4.70;4.20;;;20.30;81.30;;;21.44;38.28;97764.78;5224371;28;20200;-54
2022/04/13 08:24:48;;;;;;;5.18;4.78;;;20.60;81.60;;;21.48;37.54;97763.06;5225617;28;20239;-51
2022/04/13 08:27:21;;;;;;;7.15;4.80;;;20.70;79.90;;;21.75;37.26;97767.75;5223010;28;20335;-53
2022/04/13 08:29:54;;;;;;;5.05;4.30;;;20.80;79.90;;;21.82;37.71;97766.94;5224949;28;20292;-56
2022/04/13 08:32:27;;;;;;;4.63;4.20;;;20.90;80.50;;;21.92;37.30;97771.41;5225042;28;20629;-53
2022/04/13 08:35:05;;;;;;;5.68;4.65;;;20.90;79.80;;;22.16;36.93;97775.13;5225013;28;20312;-55
2022/04/13 08:37:39;;;;;;;6.85;4.50;;;21.10;80.00;;;22.20;36.88;97782.13;5221750;28;20660;-55
2022/04/13 08:40:16;;;;;;;6.35;5.03;;;21.10;78.90;;;22.37;36.46;97775.34;5224936;28;20204;-53
2022/04/13 08:42:58;;;;;;;7.65;5.28;;;21.30;78.40;;;22.50;36.21;97784.16;5223197;28;20200;-54
2022/04/13 08:45:43;;;;;;;5.72;4.70;;;21.40;78.60;;;22.54;35.90;97785.03;5224907;28;20213;-52
2022/04/13 08:48:22;;;;;;;6.30;5.20;;;21.40;77.60;;;22.63;36.13;97780.75;5224702;28;20209;-56
2022/04/13 08:51:00;;;;;;;5.35;4.82;;;21.50;78.50;;;22.35;37.31;97779.69;5226636;28;20591;-52
2022/04/13 08:53:35;;;;;;;6.43;5.03;;;21.60;79.70;;;22.71;36.98;97781.69;5223660;28;20229;-52
2022/04/13 08:56:12;;;;;;;7.30;5.03;;;21.70;79.20;;;22.83;36.34;97772.22;5225191;28;20324;-52
2022/04/13 08:58:51;;;;;;;6.18;5.38;;;21.70;78.70;;;22.58;37.11;97773.78;5225474;28;20292;-54
2022/04/13 09:01:30;;;;;;;7.65;5.03;;;21.80;78.80;;;22.98;36.38;97774.09;5222037;28;20197;-56
2022/04/13 09:04:10;;;;;;;5.97;5.35;;;22.00;77.80;;;23.26;35.57;97770.78;5224354;28;20204;-53
2022/04/13 09:06:47;;;;;;;6.78;5.40;;;22.30;76.80;;;23.35;34.68;97776.06;5220246;28;20221;-54
2022/04/13 09:09:29;;;;;;;6.45;5.25;;;22.40;74.80;;;23.53;34.12;97770.06;5224086;28;20764;-56
2022/04/13 09:12:04;;;;;;;5.05;4.55;;;22.50;74.40;;;23.62;34.81;97769.22;5224781;28;20232;-54
2022/04/13 09:14:39;;;;;;;6.88;5.40;;;22.80;75.00;;;23.68;34.47;97766.63;5223258;28;20311;-51
2022/04/13 09:17:12;;;;;;;6.53;5.65;;;22.90;74.10;;;23.74;34.02;97761.47;5223629;28;20291;-52
2022/04/13 09:19:47;;;;;;;5.40;4.90;;;22.80;73.90;;;23.78;34.69;97759.75;5223212;28;20206;-52
2022/04/13 09:22:23;;;;;;;5.10;4.60;;;22.70;74.90;;;23.91;34.73;97768.47;5224261;28;20227;-51
2022/04/13 09:24:57;;;;;;;6.13;4.70;;;22.90;74.20;;;24.03;34.57;97763.28;5224256;28;20248;-52
2022/04/13 09:27:32;;;;;;;5.88;5.05;;;23.10;73.90;;;24.03;34.23;97771.09;5224996;28;20283;-52
2022/04/13 09:30:08;;;;;;;6.10;4.70;;;22.90;73.60;;;23.79;34.70;97757.13;5223744;28;20323;-53
2022/04/13 09:32:42;;;;;;;5.30;4.75;;;22.80;74.60;;;23.61;35.51;97757.91;5221733;28;20205;-52
2022/04/13 09:35:15;;;;;;;5.75;4.82;;;22.60;75.60;;;23.85;35.15;97755.41;5221607;28;20252;-56
2022/04/13 09:37:50;;;;;;;5.05;4.50;;;22.90;75.60;;;23.96;34.42;97753.69;5224950;28;20284;-53
2022/04/13 09:40:30;;;;;;;4.95;4.22;;;23.20;73.80;;;24.09;34.54;97755.44;5223985;28;20245;-53
2022/04/13 09:43:09;;;;;;;4.75;3.92;;;23.10;74.50;;;24.15;34.55;97751.97;5224625;28;20632;-54
2022/04/13 09:45:44;;;;;;;4.70;3.88;;;23.30;74.30;;;24.35;34.53;97749.38;5219651;28;20688;-52
2022/04/13 09:48:19;;;;;;;4.70;4.20;;;23.50;73.40;;;24.41;33.63;97742.44;5223286;28;20271;-52
2022/04/13 09:50:53;;;;;;;5.22;4.32;;;23.50;72.60;;;24.44;33.30;97741.59;5223079;28;20644;-53
2022/04/13 09:53:28;;;;;;;4.57;3.80;;;23.40;72.30;;;24.44;33.77;97739.00;5218252;28;20291;-54
2022/04/13 09:56:01;;;;;;;5.00;3.83;;;23.50;73.00;;;24.45;33.47;97743.34;5222285;28;20315;-52
2022/04/13 09:58:34;;;;;;;4.57;4.03;;;23.60;72.30;;;24.33;33.68;97738.09;5222101;28;20288;-56
2022/04/13 10:01:08;;;;;;;6.32;3.97;;;23.60;72.10;;;24.39;33.85;97743.31;5221190;28;20274;-54
2022/04/13 10:03:54;;;;;;;3.78;3.40;;;23.60;72.30;;;24.23;35.46;97737.19;5219002;28;20669;-54
2022/04/13 10:06:29;;;;;;;4.75;3.97;;;23.40;74.90;;;24.46;34.76;97734.63;5218574;28;20245;-55
2022/04/13 10:09:09;;;;;;;4.30;3.55;;;23.60;73.60;;;24.67;34.10;97729.38;5220587;28;20310;-56
2022/04/13 10:11:58;;;;;;;4.95;4.13;;;23.90;73.60;;;24.77;34.43;97721.53;5219563;28;20205;-56
2022/04/13 10:14:32;;;;;;;4.10;3.58;;;24.00;74.30;;;24.95;34.41;97721.47;5221609;28;20646;-56
2022/04/13 10:17:09;;;;;;;5.03;3.55;;;24.00;73.60;;;24.74;34.28;97719.78;5220850;28;20239;-57
2022/04/13 10:19:43;;;;;;;4.95;3.50;;;23.90;74.00;;;24.96;34.37;97710.16;5219672;28;20201;-56
2022/04/13 10:22:16;;;;;;;4.68;3.50;;;24.00;73.40;;;25.03;34.06;97706.63;5223758;28;20295;-56
2022/04/13 10:24:51;;;;;;;4.05;3.72;;;24.10;73.30;;;25.17;32.82;97704.00;5220897;28;20763;-54
2022/04/13 10:27:27;;;;;;;4.07;3.17;;;24.10;71.60;;;25.19;33.17;97701.41;5220467;28;20642;-52
2022/04/13 10:30:07;;;;;;;3.78;3.20;;;24.20;72.20;;;25.22;33.73;97706.63;5219841;28;20220;-52
2022/04/13 10:32:40;;;;;;;5.40;3.38;;;24.40;72.30;;;25.37;33.35;97706.56;5217175;28;20227;-56
2022/04/13 10:35:13;;;;;;;3.58;3.20;;;24.50;72.50;;;25.26;33.47;97703.97;5224102;28;20247;-51
2022/04/13 10:37:46;;;;;;;3.40;3.10;;;24.50;71.20;;;25.10;33.07;97702.28;5221560;28;20204;-53
2022/04/13 10:40:22;;;;;;;3.20;2.90;;;24.30;72.00;;;25.32;32.99;97692.63;5218446;28;20197;-52
2022/04/13 10:43:00;;;;;;;3.10;2.80;;;24.50;71.10;;;25.36;32.84;97694.38;5220604;28;20739;-53
2022/04/13 10:45:34;;;;;;;4.22;2.80;;;24.60;71.20;;;25.50;32.35;97695.16;5226558;28;20600;-53
2022/04/13 10:48:09;;;;;;;2.90;2.70;;;24.70;69.50;;;25.53;31.56;97696.91;5227568;28;20224;-51
2022/04/13 10:50:57;;;;;;;3.42;2.78;;;24.70;68.70;;;25.75;31.75;97703.72;5226418;28;20207;-58
2022/04/13 10:53:34;;;;;;;2.70;2.50;;;24.90;68.60;;;25.53;31.55;97697.78;5226404;28;20193;-52